createdAt,value
2018-06-12T00:01:50.302Z,21.40
2018-06-12T00:04:21.341Z,21.40
2018-06-12T00:06:52.594Z,21.40
2018-06-12T00:09:23.635Z,21.30
2018-06-12T00:11:54.787Z,21.30
2018-06-12T00:16:56.733Z,20.90
2018-06-12T00:19:29.637Z,20.80
2018-06-12T00:22:01.036Z,20.80
2018-06-12T00:24:31.812Z,20.70
2018-06-12T00:27:02.794Z,20.70
2018-06-12T00:29:34.857Z,20.60
2018-06-12T00:32:05.970Z,20.60
2018-06-12T00:34:36.798Z,20.60
2018-06-12T00:37:08.239Z,20.60
2018-06-12T00:39:40.507Z,20.50
2018-06-12T00:42:11.517Z,20.60
2018-06-12T00:44:42.728Z,20.60
2018-06-12T00:47:13.873Z,20.70
2018-06-12T00:49:44.917Z,20.60
2018-06-12T00:52:16.008Z,20.50
2018-06-12T00:54:47.106Z,20.50
2018-06-12T00:59:48.439Z,20.40
2018-06-12T01:02:20.457Z,20.30
2018-06-12T01:04:51.657Z,20.30
2018-06-12T01:07:22.609Z,20.20
2018-06-12T01:09:53.590Z,20.20
2018-06-12T01:12:26.116Z,20.20
2018-06-12T01:14:57.069Z,20.10
2018-06-12T01:17:28.846Z,20.10
2018-06-12T01:20:00.774Z,20.10
2018-06-12T01:22:32.008Z,20.10
2018-06-12T01:25:03.106Z,20.10
2018-06-12T01:27:34.141Z,20.00
2018-06-12T01:30:05.326Z,20.00
2018-06-12T01:35:07.727Z,19.90
2018-06-12T01:37:39.491Z,20.00
2018-06-12T01:40:10.594Z,19.90
2018-06-12T01:42:42.096Z,19.90
2018-06-12T01:45:14.161Z,19.90
2018-06-12T01:47:45.221Z,19.90
2018-06-12T01:50:16.260Z,20.00
2018-06-12T01:52:48.502Z,19.90
2018-06-12T01:55:19.892Z,19.80
2018-06-12T01:57:50.933Z,19.70
2018-06-12T02:00:21.905Z,19.70
2018-06-12T02:02:52.960Z,19.60
2018-06-12T02:05:24.569Z,19.60
2018-06-12T02:07:55.543Z,19.50
2018-06-12T02:10:27.601Z,19.50
2018-06-12T02:12:59.438Z,19.50
2018-06-12T02:15:30.810Z,19.50
2018-06-12T02:18:02.002Z,19.50
2018-06-12T02:20:33.309Z,19.50
2018-06-12T02:23:04.213Z,19.50
2018-06-12T02:25:35.277Z,19.60
2018-06-12T02:28:07.155Z,19.60
2018-06-12T02:30:38.696Z,19.60
2018-06-12T02:33:09.702Z,19.60
2018-06-12T02:35:40.888Z,19.50
2018-06-12T02:38:12.057Z,19.50
2018-06-12T02:40:43.352Z,19.50
2018-06-12T02:43:14.355Z,19.40
2018-06-12T02:45:46.444Z,19.40
2018-06-12T02:48:18.536Z,19.40
2018-06-12T02:50:50.950Z,19.30
2018-06-12T02:53:22.326Z,19.30
2018-06-12T02:55:54.053Z,19.30
2018-06-12T02:58:25.133Z,19.20
2018-06-12T03:00:56.265Z,19.10
2018-06-12T03:03:28.165Z,19.00
2018-06-12T03:05:59.849Z,18.80
2018-06-12T03:08:31.752Z,18.60
2018-06-12T03:11:02.870Z,18.40
2018-06-12T03:13:33.928Z,18.40
2018-06-12T03:16:06.071Z,18.30
2018-06-12T03:18:37.097Z,18.30
2018-06-12T03:21:08.320Z,18.30
2018-06-12T03:23:39.653Z,18.40
2018-06-12T03:26:11.974Z,18.40
2018-06-12T03:28:43.224Z,18.30
2018-06-12T03:31:14.183Z,18.30
2018-06-12T03:33:45.433Z,18.30
2018-06-12T03:36:16.728Z,18.20
2018-06-12T03:38:48.043Z,18.20
2018-06-12T03:41:19.328Z,18.20
2018-06-12T03:43:51.402Z,18.20
2018-06-12T03:46:22.746Z,18.20
2018-06-12T03:51:24.947Z,18.20
2018-06-12T03:53:56.573Z,18.30
2018-06-12T03:56:29.053Z,18.30
2018-06-12T03:59:01.044Z,18.30
2018-06-12T04:01:32.315Z,18.30
2018-06-12T04:04:03.515Z,18.30
2018-06-12T04:06:38.245Z,18.30
2018-06-12T04:09:10.921Z,18.30
2018-06-12T04:11:42.457Z,18.20
2018-06-12T04:14:14.450Z,18.20
2018-06-12T04:16:45.692Z,18.10
2018-06-12T04:21:47.703Z,18.00
2018-06-12T04:24:19.037Z,18.00
2018-06-12T04:26:50.130Z,18.00
2018-06-12T04:29:22.168Z,18.00
2018-06-12T04:31:53.940Z,18.00
2018-06-12T04:34:25.939Z,18.00
2018-06-12T04:37:00.434Z,18.00
2018-06-12T04:39:31.967Z,18.10
2018-06-12T04:42:03.211Z,18.00
2018-06-12T04:44:34.894Z,18.00
2018-06-12T04:47:06.989Z,18.10
2018-06-12T04:49:38.158Z,18.20
2018-06-12T04:52:09.295Z,18.30
2018-06-12T04:54:40.513Z,18.50
2018-06-12T04:57:11.850Z,18.70
2018-06-12T04:59:43.326Z,18.80
2018-06-12T05:02:15.223Z,19.00
2018-06-12T05:07:17.548Z,19.00
2018-06-12T05:09:49.332Z,19.00
2018-06-12T05:12:20.311Z,19.00
2018-06-12T05:14:51.745Z,19.00
2018-06-12T05:17:22.907Z,19.00
2018-06-12T05:22:25.142Z,19.00
2018-06-12T05:24:56.741Z,18.90
2018-06-12T05:27:28.932Z,18.70
2018-06-12T05:30:00.173Z,18.60
2018-06-12T05:32:31.020Z,18.90
2018-06-12T05:35:02.073Z,19.20
2018-06-12T05:37:33.690Z,19.50
2018-06-12T05:40:05.932Z,19.70
2018-06-12T05:42:38.709Z,19.90
2018-06-12T05:45:10.233Z,20.10
2018-06-12T05:47:41.849Z,20.30
2018-06-12T05:50:13.429Z,20.50
2018-06-12T05:52:45.287Z,20.60
2018-06-12T05:55:17.005Z,20.70
2018-06-12T05:57:48.142Z,20.80
2018-06-12T06:00:19.419Z,20.90
2018-06-12T06:02:51.220Z,21.10
2018-06-12T06:05:23.842Z,21.00
2018-06-12T06:07:56.468Z,21.10
2018-06-12T06:10:29.166Z,21.20
2018-06-12T06:13:00.710Z,21.30
2018-06-12T06:15:32.081Z,21.50
2018-06-12T06:18:03.195Z,21.60
2018-06-12T06:20:36.326Z,21.90
2018-06-12T06:23:08.312Z,21.80
2018-06-12T06:25:39.990Z,22.10
2018-06-12T06:28:12.255Z,22.60
2018-06-12T06:30:43.854Z,23.20
2018-06-12T06:33:15.686Z,23.30
2018-06-12T06:35:47.443Z,24.00
2018-06-12T06:38:19.751Z,23.40
2018-06-12T06:40:52.606Z,23.80
2018-06-12T06:43:24.487Z,23.50
2018-06-12T06:45:55.743Z,23.70
2018-06-12T06:48:28.060Z,24.20
2018-06-12T06:51:00.763Z,24.50
2018-06-12T06:53:33.282Z,23.80
2018-06-12T06:56:04.763Z,24.00
2018-06-12T06:58:36.656Z,24.00
2018-06-12T07:01:08.603Z,24.00
2018-06-12T07:06:10.636Z,24.70
2018-06-12T07:08:41.712Z,24.30
2018-06-12T07:11:13.592Z,25.00
2018-06-12T07:13:45.553Z,25.40
2018-06-12T07:16:16.984Z,25.80
2018-06-12T07:18:48.233Z,26.20
2018-06-12T07:21:24.731Z,26.60
2018-06-12T07:23:55.885Z,26.70
2018-06-12T07:26:28.515Z,27.30
2018-06-12T07:29:00.174Z,27.00
2018-06-12T07:31:31.329Z,26.50
2018-06-12T07:34:03.148Z,26.50
2018-06-12T07:36:34.318Z,25.80
2018-06-12T07:39:08.231Z,26.20
2018-06-12T07:41:40.246Z,27.00
2018-06-12T07:44:12.055Z,27.40
2018-06-12T07:46:43.554Z,27.80
2018-06-12T07:49:14.767Z,28.00
2018-06-12T07:51:46.730Z,28.00
2018-06-12T07:54:18.701Z,28.10
2018-06-12T07:56:50.184Z,28.00
2018-06-12T07:59:23.013Z,28.20
2018-06-12T08:01:55.459Z,28.20
2018-06-12T08:04:27.653Z,28.50
2018-06-12T08:07:00.650Z,28.40
2018-06-12T08:09:32.166Z,28.70
2018-06-12T08:12:05.941Z,28.70
2018-06-12T08:14:38.380Z,28.80
2018-06-12T08:17:10.115Z,28.60
2018-06-12T08:19:42.326Z,28.70
2018-06-12T08:22:14.779Z,28.90
2018-06-12T08:24:46.981Z,29.20
2018-06-12T08:27:18.502Z,29.30
2018-06-12T08:29:50.554Z,29.50
2018-06-12T08:32:21.877Z,28.80
2018-06-12T08:34:52.880Z,29.40
2018-06-12T08:37:24.269Z,29.10
2018-06-12T08:39:56.295Z,29.40
2018-06-12T08:42:27.487Z,29.90
2018-06-12T08:44:59.112Z,29.30
2018-06-12T08:50:00.997Z,29.10
2018-06-12T08:52:34.055Z,27.70
2018-06-12T08:55:05.947Z,28.80
2018-06-12T08:57:38.129Z,28.50
2018-06-12T09:00:10.037Z,28.70
2018-06-12T09:02:41.581Z,29.10
2018-06-12T09:05:12.767Z,29.20
2018-06-12T09:07:44.165Z,28.40
2018-06-12T09:12:46.742Z,28.50
2018-06-12T09:15:18.674Z,27.80
2018-06-12T09:17:51.281Z,28.20
2018-06-12T09:20:22.859Z,29.10
2018-06-12T09:25:24.811Z,28.60
2018-06-12T09:27:57.411Z,28.40
2018-06-12T09:30:29.496Z,28.70
2018-06-12T09:33:01.750Z,27.90
2018-06-12T09:35:32.999Z,28.40
2018-06-12T09:40:35.251Z,26.90
2018-06-12T09:43:06.636Z,27.10
2018-06-12T09:45:38.602Z,27.60
2018-06-12T09:48:10.859Z,27.20
2018-06-12T09:53:14.248Z,27.40
2018-06-12T09:55:46.237Z,27.20
2018-06-12T09:58:17.652Z,26.70
2018-06-12T10:00:53.610Z,27.10
2018-06-12T10:03:25.761Z,26.20
2018-06-12T10:05:57.240Z,25.90
2018-06-12T10:08:29.293Z,25.70
2018-06-12T10:11:04.923Z,25.90
2018-06-12T10:13:37.220Z,26.50
2018-06-12T10:16:09.156Z,26.30
2018-06-12T10:18:40.855Z,26.50
2018-06-12T10:21:12.342Z,27.10
2018-06-12T10:26:14.729Z,28.60
2018-06-12T10:28:51.016Z,29.20
2018-06-12T10:31:24.194Z,28.10
2018-06-12T10:33:58.099Z,27.30
2018-06-12T10:36:32.243Z,27.50
2018-06-12T10:39:03.921Z,28.00
2018-06-12T10:41:39.588Z,28.50
2018-06-12T10:44:12.544Z,27.60
2018-06-12T10:49:17.676Z,27.90
2018-06-12T10:51:52.768Z,27.70
2018-06-12T10:54:25.730Z,27.90
2018-06-12T10:56:57.830Z,28.90
2018-06-12T10:59:30.759Z,29.70
2018-06-12T11:02:03.104Z,30.60
2018-06-12T11:04:34.224Z,29.70
2018-06-12T11:07:05.336Z,29.40
2018-06-12T11:09:36.578Z,28.60
2018-06-12T11:12:07.830Z,27.70
2018-06-12T11:14:40.314Z,28.10
2018-06-12T11:17:12.427Z,27.70
2018-06-12T11:19:43.630Z,27.50
2018-06-12T11:22:15.264Z,28.10
2018-06-12T11:24:46.338Z,28.50
2018-06-12T11:27:17.766Z,27.90
2018-06-12T11:29:49.360Z,27.60
2018-06-12T11:32:21.800Z,27.80
2018-06-12T11:34:54.526Z,27.70
2018-06-12T11:37:25.983Z,27.90
2018-06-12T11:39:57.667Z,27.70
2018-06-12T11:42:29.686Z,27.50
2018-06-12T11:45:01.105Z,28.00
2018-06-12T11:50:06.470Z,28.70
2018-06-12T11:52:38.670Z,28.60
2018-06-12T11:55:10.130Z,28.80
2018-06-12T11:57:41.470Z,28.10
2018-06-12T12:00:13.472Z,28.30
2018-06-12T12:02:50.180Z,29.00
2018-06-12T12:05:22.071Z,28.80
2018-06-12T12:07:54.939Z,28.60
2018-06-12T12:10:26.958Z,28.80
2018-06-12T12:12:58.647Z,29.10
2018-06-12T12:15:30.265Z,28.60
2018-06-12T12:18:02.222Z,28.20
2018-06-12T12:20:34.776Z,28.80
2018-06-12T12:23:06.086Z,28.30
2018-06-12T12:25:37.500Z,28.00
2018-06-12T12:28:08.759Z,28.30
2018-06-12T12:30:40.614Z,28.10
2018-06-12T12:33:12.021Z,27.40
2018-06-12T12:35:44.972Z,27.90
2018-06-12T12:38:17.533Z,28.20
2018-06-12T12:40:49.747Z,28.70
2018-06-12T12:43:21.104Z,27.80
2018-06-12T12:45:52.400Z,27.80
2018-06-12T12:48:24.936Z,28.10
2018-06-12T12:50:57.014Z,27.70
2018-06-12T12:53:28.845Z,28.30
2018-06-12T12:56:00.732Z,27.60
2018-06-12T12:58:31.986Z,27.80
2018-06-12T13:01:03.263Z,27.90
2018-06-12T13:03:35.280Z,28.00
2018-06-12T13:08:39.359Z,28.10
2018-06-12T13:11:12.912Z,27.60
2018-06-12T13:13:45.269Z,27.20
2018-06-12T13:16:16.547Z,28.00
2018-06-12T13:18:48.119Z,28.50
2018-06-12T13:21:20.753Z,27.90
2018-06-12T13:23:53.259Z,27.60
2018-06-12T13:26:25.369Z,27.80
2018-06-12T13:28:57.749Z,27.40
2018-06-12T13:31:29.089Z,27.70
2018-06-12T13:34:00.401Z,27.90
2018-06-12T13:36:31.816Z,28.40
2018-06-12T13:39:03.448Z,28.50
2018-06-12T13:41:36.274Z,27.70
2018-06-12T13:44:07.976Z,27.50
2018-06-12T13:46:41.155Z,27.00
2018-06-12T13:49:13.421Z,27.60
2018-06-12T13:51:45.019Z,27.70
2018-06-12T13:54:16.447Z,27.70
2018-06-12T13:56:49.092Z,27.10
2018-06-12T13:59:20.690Z,27.00
2018-06-12T14:01:51.942Z,27.60
2018-06-12T14:04:23.339Z,27.40
2018-06-12T14:06:56.178Z,27.70
2018-06-12T14:09:27.504Z,27.40
2018-06-12T14:11:58.723Z,27.40
2018-06-12T14:17:05.516Z,27.90
2018-06-12T14:19:36.713Z,27.20
2018-06-12T14:22:08.264Z,27.40
2018-06-12T14:24:39.553Z,27.20
2018-06-12T14:27:11.235Z,27.60
2018-06-12T14:29:43.892Z,27.40
2018-06-12T14:32:16.171Z,27.20
2018-06-12T14:34:48.175Z,27.50
2018-06-12T14:37:19.252Z,27.10
2018-06-12T14:39:51.057Z,27.50
2018-06-12T14:42:23.116Z,27.20
2018-06-12T14:44:56.301Z,27.30
2018-06-12T14:47:28.080Z,27.20
2018-06-12T14:49:59.399Z,27.30
2018-06-12T14:52:30.643Z,26.80
2018-06-12T14:55:01.798Z,26.60
2018-06-12T14:57:33.121Z,26.20
2018-06-12T15:00:04.857Z,26.30
2018-06-12T15:02:37.220Z,26.50
2018-06-12T15:05:08.796Z,26.80
2018-06-12T15:07:40.081Z,26.90
2018-06-12T15:10:11.622Z,26.50
2018-06-12T15:12:44.716Z,26.60
2018-06-12T15:15:16.702Z,27.00
2018-06-12T15:17:49.016Z,26.30
2018-06-12T15:20:22.869Z,26.20
2018-06-12T15:22:54.017Z,26.20
2018-06-12T15:25:26.062Z,26.40
2018-06-12T15:27:57.542Z,26.10
2018-06-12T15:30:28.869Z,26.20
2018-06-12T15:33:00.363Z,26.20
2018-06-12T15:35:32.814Z,25.70
2018-06-12T15:40:34.890Z,25.80
2018-06-12T15:43:06.496Z,25.90
2018-06-12T15:45:37.948Z,25.60
2018-06-12T15:48:08.933Z,25.80
2018-06-12T15:53:13.338Z,25.70
2018-06-12T15:55:45.301Z,25.50
2018-06-12T15:58:16.696Z,25.30
2018-06-12T16:00:47.922Z,25.40
2018-06-12T16:03:19.316Z,25.50
2018-06-12T16:05:50.690Z,25.30
2018-06-12T16:08:23.249Z,25.10
2018-06-12T16:13:25.572Z,24.90
2018-06-12T16:18:27.970Z,24.90
2018-06-12T16:20:59.131Z,24.90
2018-06-12T16:23:30.733Z,24.90
2018-06-12T16:28:35.370Z,25.00
2018-06-12T16:31:06.966Z,24.90
2018-06-12T16:33:38.738Z,25.30
2018-06-12T16:36:10.534Z,25.30
2018-06-12T16:41:13.901Z,24.50
2018-06-12T16:43:45.858Z,24.30
2018-06-12T16:46:17.170Z,24.50
2018-06-12T16:48:48.432Z,24.20
2018-06-12T16:51:20.991Z,24.20
2018-06-12T16:53:52.333Z,24.20
2018-06-12T16:56:29.204Z,24.20
2018-06-12T16:59:01.816Z,24.30
2018-06-12T17:01:34.003Z,24.20
2018-06-12T17:04:05.864Z,24.10
2018-06-12T17:06:37.351Z,24.20
2018-06-12T17:09:10.456Z,24.00
2018-06-12T17:11:43.297Z,24.00
2018-06-12T17:14:15.143Z,23.80
2018-06-12T17:16:46.397Z,23.90
2018-06-12T17:19:18.296Z,23.60
2018-06-12T17:21:51.272Z,23.60
2018-06-12T17:24:24.749Z,23.60
2018-06-12T17:26:57.182Z,23.60
2018-06-12T17:29:29.975Z,23.60
2018-06-12T17:32:02.864Z,23.40
2018-06-12T17:34:34.962Z,23.60
2018-06-12T17:37:06.272Z,23.60
2018-06-12T17:42:09.650Z,23.60
2018-06-12T17:44:42.198Z,23.60
2018-06-12T17:47:13.751Z,23.60
2018-06-12T17:49:46.422Z,23.60
2018-06-12T17:52:19.165Z,23.60
2018-06-12T17:54:51.447Z,23.60
2018-06-12T17:57:24.804Z,23.60
2018-06-12T17:59:57.719Z,23.60
2018-06-12T18:02:30.231Z,23.50
2018-06-12T18:05:02.801Z,23.50
2018-06-12T18:07:35.235Z,23.10
2018-06-12T18:10:07.497Z,23.10
2018-06-12T18:12:39.552Z,23.10
2018-06-12T18:15:13.664Z,22.90
2018-06-12T18:17:46.172Z,22.90
2018-06-12T18:20:22.402Z,23.00
2018-06-12T18:22:55.176Z,23.00
2018-06-12T18:25:28.463Z,23.00
2018-06-12T18:28:02.397Z,22.90
2018-06-12T18:30:36.757Z,22.90
2018-06-12T18:35:43.828Z,22.70
2018-06-12T18:38:17.931Z,22.70
2018-06-12T18:40:52.199Z,22.70
2018-06-12T18:43:25.777Z,22.70
2018-06-12T18:45:58.684Z,22.70
2018-06-12T18:48:32.330Z,22.70
2018-06-12T18:51:05.857Z,22.70
2018-06-12T18:53:38.816Z,22.80
2018-06-12T18:56:11.899Z,22.80
2018-06-12T18:58:44.632Z,22.80
2018-06-12T19:01:17.975Z,22.70
2018-06-12T19:03:50.847Z,22.60
2018-06-12T19:06:24.598Z,22.50
2018-06-12T19:08:58.431Z,22.40
2018-06-12T19:11:32.148Z,22.40
2018-06-12T19:14:05.835Z,22.50
2018-06-12T19:19:11.994Z,22.30
2018-06-12T19:21:44.804Z,22.30
2018-06-12T19:24:17.906Z,22.40
2018-06-12T19:26:50.646Z,22.50
2018-06-12T19:29:23.929Z,22.60
2018-06-12T19:34:28.891Z,22.70
2018-06-12T19:37:02.054Z,22.70
2018-06-12T19:39:37.850Z,22.80
2018-06-12T19:42:11.442Z,22.90
2018-06-12T19:44:45.603Z,22.90
2018-06-12T19:47:20.140Z,23.00
2018-06-12T19:49:53.147Z,23.00
2018-06-12T19:52:26.315Z,23.10
2018-06-12T19:54:59.442Z,23.00
2018-06-12T19:57:33.232Z,22.90
2018-06-12T20:00:06.434Z,22.80
2018-06-12T20:05:13.056Z,22.80
2018-06-12T20:07:46.934Z,22.90
2018-06-12T20:10:26.899Z,22.80
2018-06-12T20:13:01.774Z,22.80
2018-06-12T20:15:37.087Z,22.80
2018-06-12T20:20:43.816Z,22.80
2018-06-12T20:23:16.530Z,22.70
2018-06-12T20:25:49.411Z,22.60
2018-06-12T20:28:22.761Z,22.70
2018-06-12T20:30:55.463Z,22.60
2018-06-12T20:33:28.821Z,22.50
2018-06-12T20:36:01.589Z,22.30
2018-06-12T20:38:34.224Z,22.20
2018-06-12T20:41:07.173Z,22.10
2018-06-12T20:43:40.490Z,22.00
2018-06-12T20:46:13.547Z,21.80
2018-06-12T20:48:46.707Z,21.70
2018-06-12T20:51:19.428Z,21.70
2018-06-12T20:53:52.175Z,21.70
2018-06-12T20:56:25.089Z,21.70
2018-06-12T20:58:57.664Z,21.80
2018-06-12T21:01:30.910Z,21.70
2018-06-12T21:04:02.451Z,21.70
2018-06-12T21:06:34.171Z,21.70
2018-06-12T21:09:06.780Z,21.70
2018-06-12T21:11:38.404Z,21.70
2018-06-12T21:14:10.051Z,21.60
2018-06-12T21:16:42.008Z,21.50
2018-06-12T21:19:14.486Z,21.60
2018-06-12T21:21:45.753Z,21.70
2018-06-12T21:24:18.802Z,21.70
2018-06-12T21:26:50.871Z,21.70
2018-06-12T21:29:22.513Z,21.80
2018-06-12T21:31:54.506Z,21.80
2018-06-12T21:34:26.048Z,21.80
2018-06-12T21:36:57.732Z,21.70
2018-06-12T21:39:29.527Z,21.70
2018-06-12T21:42:01.864Z,21.50
2018-06-12T21:44:32.976Z,21.40
2018-06-12T21:47:04.268Z,21.30
2018-06-12T21:49:35.300Z,21.30
2018-06-12T21:52:06.431Z,21.30
2018-06-12T21:54:37.693Z,21.20
2018-06-12T21:57:08.944Z,21.20
2018-06-12T21:59:40.883Z,21.20
2018-06-12T22:02:13.094Z,21.20
2018-06-12T22:04:45.155Z,21.10
2018-06-12T22:07:16.750Z,21.00
2018-06-12T22:09:49.343Z,20.90
2018-06-12T22:12:20.651Z,20.80
2018-06-12T22:14:52.325Z,20.80
2018-06-12T22:17:27.240Z,20.70
2018-06-12T22:19:58.936Z,20.50
2018-06-12T22:25:01.356Z,20.30
2018-06-12T22:27:32.720Z,20.30
2018-06-12T22:30:05.563Z,20.30
2018-06-12T22:32:38.859Z,20.20
2018-06-12T22:35:10.054Z,20.10
2018-06-12T22:37:41.359Z,20.00
2018-06-12T22:40:15.193Z,19.80
2018-06-12T22:45:20.930Z,19.70
2018-06-12T22:47:53.239Z,19.70
2018-06-12T22:50:24.539Z,19.70
2018-06-12T22:52:55.796Z,19.70
2018-06-12T22:55:27.443Z,19.70
2018-06-12T22:57:58.555Z,19.60
2018-06-12T23:03:00.636Z,19.50
2018-06-12T23:05:32.098Z,19.40
2018-06-12T23:08:03.375Z,19.30
2018-06-12T23:10:34.833Z,19.30
2018-06-12T23:13:06.140Z,19.10
2018-06-12T23:15:37.307Z,19.10
2018-06-12T23:18:09.265Z,19.00
2018-06-12T23:21:57.122Z,19.00
2018-06-12T23:24:30.345Z,19.00
2018-06-12T23:27:02.165Z,19.00
2018-06-12T23:29:33.883Z,18.90
2018-06-12T23:32:06.109Z,18.90
2018-06-12T23:34:37.882Z,18.90
2018-06-12T23:37:09.566Z,18.90
2018-06-12T23:39:40.963Z,18.80
2018-06-12T23:42:12.207Z,18.80
2018-06-12T23:44:44.187Z,18.70
2018-06-12T23:47:15.533Z,18.60
2018-06-12T23:52:18.179Z,18.50
2018-06-12T23:54:50.250Z,18.50
2018-06-12T23:57:21.418Z,18.50
2018-06-12T23:59:52.592Z,18.50
